createdAt,value
2023-03-22T00:01:00.142Z,100.00
2023-03-22T00:02:04.551Z,100.00
2023-03-22T00:03:08.241Z,100.00
2023-03-22T00:04:12.472Z,100.00
2023-03-22T00:05:17.075Z,100.00
2023-03-22T00:06:21.080Z,100.00
2023-03-22T00:07:25.102Z,100.00
2023-03-22T00:08:34.844Z,100.00
2023-03-22T00:09:39.580Z,100.00
2023-03-22T00:10:43.468Z,100.00
2023-03-22T00:11:51.048Z,100.00
2023-03-22T00:12:55.804Z,100.00
2023-03-22T00:13:59.782Z,100.00
2023-03-22T00:15:24.977Z,100.00
2023-03-22T00:16:28.939Z,100.00
2023-03-22T00:17:34.046Z,100.00
2023-03-22T00:18:37.763Z,100.00
2023-03-22T00:19:42.406Z,100.00
2023-03-22T00:20:55.652Z,100.00
2023-03-22T00:22:01.514Z,100.00
2023-03-22T00:23:06.212Z,100.00
2023-03-22T00:24:10.379Z,100.00
2023-03-22T00:25:14.203Z,100.00
2023-03-22T00:26:18.142Z,100.00
2023-03-22T00:27:21.849Z,100.00
2023-03-22T00:28:25.810Z,100.00
2023-03-22T00:29:29.631Z,100.00
2023-03-22T00:30:34.642Z,100.00
2023-03-22T00:31:38.752Z,100.00
2023-03-22T00:32:42.672Z,100.00
2023-03-22T00:33:46.441Z,100.00
2023-03-22T00:34:50.202Z,100.00
2023-03-22T00:35:58.786Z,100.00
2023-03-22T00:37:02.546Z,100.00
2023-03-22T00:38:06.554Z,100.00
2023-03-22T00:39:10.609Z,100.00
2023-03-22T00:40:16.245Z,100.00
2023-03-22T00:41:24.462Z,100.00
2023-03-22T00:42:28.427Z,100.00
2023-03-22T00:43:32.388Z,100.00
2023-03-22T00:44:36.363Z,100.00
2023-03-22T00:45:42.520Z,100.00
2023-03-22T00:46:48.325Z,100.00
2023-03-22T00:47:52.094Z,100.00
2023-03-22T00:48:55.761Z,100.00
2023-03-22T00:50:02.592Z,100.00
2023-03-22T00:51:08.183Z,100.00
2023-03-22T00:52:12.124Z,100.00
2023-03-22T00:53:15.656Z,100.00
2023-03-22T00:54:19.748Z,100.00
2023-03-22T00:55:23.569Z,100.00
2023-03-22T00:56:28.802Z,100.00
2023-03-22T00:57:32.483Z,100.00
2023-03-22T00:58:36.333Z,100.00
2023-03-22T00:59:40.744Z,100.00
2023-03-22T01:00:45.373Z,100.00
2023-03-22T01:01:48.890Z,100.00
2023-03-22T01:02:59.743Z,100.00
2023-03-22T01:04:05.180Z,100.00
2023-03-22T01:05:15.942Z,100.00
2023-03-22T01:06:19.724Z,100.00
2023-03-22T01:07:24.134Z,100.00
2023-03-22T01:08:33.427Z,100.00
2023-03-22T01:09:37.233Z,100.00
2023-03-22T01:10:42.805Z,100.00
2023-03-22T01:11:46.538Z,100.00
2023-03-22T01:12:51.840Z,100.00
2023-03-22T01:13:55.901Z,100.00
2023-03-22T01:15:00.314Z,100.00
2023-03-22T01:16:07.350Z,100.00
2023-03-22T01:17:11.242Z,100.00
2023-03-22T01:18:15.183Z,100.00
2023-03-22T01:19:18.735Z,100.00
2023-03-22T01:20:23.037Z,100.00
2023-03-22T01:21:27.183Z,100.00
2023-03-22T01:22:31.013Z,100.00
2023-03-22T01:23:35.118Z,100.00
2023-03-22T01:24:38.728Z,100.00
2023-03-22T01:25:42.446Z,100.00
2023-03-22T01:26:46.164Z,100.00
2023-03-22T01:27:49.889Z,100.00
2023-03-22T01:28:53.582Z,100.00
2023-03-22T01:29:57.460Z,100.00
2023-03-22T01:31:04.311Z,100.00
2023-03-22T01:32:09.652Z,100.00
2023-03-22T01:33:13.232Z,100.00
2023-03-22T01:34:17.622Z,100.00
2023-03-22T01:35:21.385Z,100.00
2023-03-22T01:36:25.082Z,100.00
2023-03-22T01:37:28.751Z,100.00
2023-03-22T01:38:32.572Z,100.00
2023-03-22T01:39:36.430Z,100.00
2023-03-22T01:40:41.016Z,100.00
2023-03-22T01:41:45.002Z,100.00
2023-03-22T01:42:49.264Z,100.00
2023-03-22T01:44:18.601Z,100.00
2023-03-22T01:45:43.305Z,100.00
2023-03-22T01:46:50.347Z,100.00
2023-03-22T01:48:03.279Z,100.00
2023-03-22T01:49:33.388Z,100.00
2023-03-22T01:50:42.686Z,100.00
2023-03-22T01:51:51.554Z,100.00
2023-03-22T01:52:58.246Z,100.00
2023-03-22T01:54:10.774Z,100.00
2023-03-22T01:55:15.160Z,100.00
2023-03-22T01:56:28.094Z,100.00
2023-03-22T01:57:37.652Z,100.00
2023-03-22T01:58:43.067Z,100.00
2023-03-22T01:59:48.059Z,100.00
2023-03-22T02:00:53.736Z,100.00
2023-03-22T02:02:05.489Z,100.00
2023-03-22T02:03:12.035Z,100.00
2023-03-22T02:04:25.291Z,100.00
2023-03-22T02:05:31.744Z,100.00
2023-03-22T02:06:38.548Z,100.00
2023-03-22T02:07:44.868Z,100.00
2023-03-22T02:08:52.789Z,100.00
2023-03-22T02:09:56.960Z,100.00
2023-03-22T02:11:04.959Z,100.00
2023-03-22T02:12:30.662Z,100.00
2023-03-22T02:14:10.833Z,100.00
2023-03-22T02:15:38.381Z,100.00
2023-03-22T02:17:27.949Z,100.00
2023-03-22T02:18:45.194Z,100.00
2023-03-22T02:20:42.087Z,100.00
2023-03-22T02:21:51.319Z,100.00
2023-03-22T02:23:19.902Z,100.00
2023-03-22T02:25:20.870Z,100.00
2023-03-22T02:26:25.138Z,100.00
2023-03-22T02:28:13.670Z,100.00
2023-03-22T02:29:52.678Z,100.00
2023-03-22T02:31:45.594Z,100.00
2023-03-22T02:33:19.941Z,100.00
2023-03-22T02:34:41.710Z,100.00
2023-03-22T02:36:38.894Z,100.00
2023-03-22T02:38:19.861Z,100.00
2023-03-22T02:39:47.880Z,100.00
2023-03-22T02:41:23.579Z,100.00
2023-03-22T02:43:05.558Z,100.00
2023-03-22T02:44:43.391Z,100.00
2023-03-22T02:46:03.085Z,100.00
2023-03-22T02:47:19.657Z,100.00
2023-03-22T02:48:32.482Z,100.00
2023-03-22T02:50:07.011Z,100.00
2023-03-22T02:51:24.980Z,100.00
2023-03-22T02:52:39.543Z,100.00
2023-03-22T02:54:03.893Z,100.00
2023-03-22T02:55:51.410Z,100.00
2023-03-22T02:57:09.304Z,100.00
2023-03-22T02:58:25.188Z,100.00
2023-03-22T02:59:33.216Z,100.00
2023-03-22T03:00:40.336Z,100.00
2023-03-22T03:01:54.755Z,100.00
2023-03-22T03:03:11.522Z,100.00
2023-03-22T03:04:24.784Z,100.00
2023-03-22T03:05:33.759Z,100.00
2023-03-22T03:06:46.123Z,100.00
2023-03-22T03:07:58.715Z,100.00
2023-03-22T03:09:05.298Z,100.00
2023-03-22T03:10:12.435Z,100.00
2023-03-22T03:11:16.174Z,100.00
2023-03-22T03:12:26.979Z,100.00
2023-03-22T03:13:30.522Z,100.00
2023-03-22T03:14:34.128Z,100.00
2023-03-22T03:15:43.977Z,100.00
2023-03-22T03:17:11.946Z,100.00
2023-03-22T03:18:54.105Z,100.00
2023-03-22T03:20:30.595Z,100.00
2023-03-22T03:21:59.883Z,100.00
2023-03-22T03:23:17.710Z,100.00
2023-03-22T03:24:29.961Z,100.00
2023-03-22T03:26:07.462Z,100.00
2023-03-22T03:27:28.237Z,100.00
2023-03-22T03:29:26.291Z,100.00
2023-03-22T03:30:43.932Z,100.00
2023-03-22T03:32:38.602Z,100.00
2023-03-22T03:34:26.146Z,100.00
2023-03-22T03:35:42.184Z,100.00
2023-03-22T03:37:26.945Z,100.00
2023-03-22T03:38:36.431Z,100.00
2023-03-22T03:40:05.455Z,100.00
2023-03-22T03:41:22.091Z,100.00
2023-03-22T03:42:30.390Z,100.00
2023-03-22T03:43:37.467Z,100.00
2023-03-22T03:44:44.453Z,100.00
2023-03-22T03:45:48.542Z,100.00
2023-03-22T03:46:54.799Z,100.00
2023-03-22T03:48:07.190Z,100.00
2023-03-22T03:49:13.034Z,100.00
2023-03-22T03:50:17.648Z,100.00
2023-03-22T03:51:21.614Z,100.00
2023-03-22T03:52:26.635Z,100.00
2023-03-22T03:53:31.356Z,100.00
2023-03-22T03:54:36.218Z,100.00
2023-03-22T03:55:40.063Z,100.00
2023-03-22T03:56:43.984Z,100.00
2023-03-22T03:57:48.486Z,100.00
2023-03-22T03:58:52.074Z,100.00
2023-03-22T03:59:55.724Z,100.00
2023-03-22T04:01:00.005Z,100.00
2023-03-22T04:02:03.948Z,100.00
2023-03-22T04:03:07.804Z,100.00
2023-03-22T04:04:14.426Z,100.00
2023-03-22T04:05:18.543Z,100.00
2023-03-22T04:06:23.047Z,100.00
2023-03-22T04:07:28.274Z,100.00
2023-03-22T04:08:32.008Z,100.00
2023-03-22T04:09:39.308Z,100.00
2023-03-22T04:10:46.436Z,100.00
2023-03-22T04:11:50.167Z,100.00
2023-03-22T04:12:53.848Z,100.00
2023-03-22T04:13:57.472Z,100.00
2023-03-22T04:15:01.506Z,100.00
2023-03-22T04:16:06.088Z,100.00
2023-03-22T04:17:10.438Z,100.00
2023-03-22T04:18:14.537Z,100.00
2023-03-22T04:19:19.156Z,100.00
2023-03-22T04:20:23.971Z,100.00
2023-03-22T04:21:27.710Z,100.00
2023-03-22T04:22:34.733Z,100.00
2023-03-22T04:23:39.653Z,100.00
2023-03-22T04:24:44.376Z,100.00
2023-03-22T04:25:50.284Z,100.00
2023-03-22T04:26:57.633Z,100.00
2023-03-22T04:28:01.712Z,100.00
2023-03-22T04:29:06.152Z,100.00
2023-03-22T04:30:23.049Z,100.00
2023-03-22T04:31:27.150Z,100.00
2023-03-22T04:32:31.463Z,100.00
2023-03-22T04:33:39.384Z,100.00
2023-03-22T04:34:44.392Z,100.00
2023-03-22T04:35:48.033Z,100.00
2023-03-22T04:36:51.872Z,100.00
2023-03-22T04:37:57.019Z,100.00
2023-03-22T04:39:00.969Z,100.00
2023-03-22T04:40:08.609Z,100.00
2023-03-22T04:41:12.690Z,100.00
2023-03-22T04:42:17.393Z,100.00
2023-03-22T04:43:22.033Z,100.00
2023-03-22T04:44:26.207Z,100.00
2023-03-22T04:45:32.508Z,100.00
2023-03-22T04:46:37.815Z,100.00
2023-03-22T04:47:41.788Z,100.00
2023-03-22T04:48:46.594Z,100.00
2023-03-22T04:49:50.651Z,100.00
2023-03-22T04:50:54.734Z,100.00
2023-03-22T04:51:59.536Z,100.00
2023-03-22T04:53:03.545Z,100.00
2023-03-22T04:54:07.614Z,100.00
2023-03-22T04:55:11.643Z,100.00
2023-03-22T04:56:16.288Z,100.00
2023-03-22T04:57:20.052Z,100.00
2023-03-22T04:58:27.400Z,100.00
2023-03-22T04:59:31.018Z,100.00
2023-03-22T05:00:35.010Z,100.00
2023-03-22T05:01:40.700Z,100.00
2023-03-22T05:02:45.045Z,100.00
2023-03-22T05:03:48.992Z,100.00
2023-03-22T05:04:52.762Z,100.00
2023-03-22T05:06:01.343Z,100.00
2023-03-22T05:07:04.863Z,100.00
2023-03-22T05:08:08.932Z,100.00
2023-03-22T05:09:17.936Z,100.00
2023-03-22T05:10:22.235Z,100.00
2023-03-22T05:11:28.054Z,100.00
2023-03-22T05:12:32.511Z,100.00
2023-03-22T05:13:38.485Z,100.00
2023-03-22T05:14:42.703Z,100.00
2023-03-22T05:15:49.201Z,100.00
2023-03-22T05:16:53.082Z,100.00
2023-03-22T05:17:56.740Z,100.00
2023-03-22T05:19:02.476Z,100.00
2023-03-22T05:20:10.137Z,100.00
2023-03-22T05:21:17.981Z,100.00
2023-03-22T05:22:22.658Z,100.00
2023-03-22T05:23:27.405Z,100.00
2023-03-22T05:24:31.748Z,100.00
2023-03-22T05:25:36.913Z,100.00
2023-03-22T05:26:42.583Z,100.00
2023-03-22T05:27:46.678Z,100.00
2023-03-22T05:28:51.530Z,100.00
2023-03-22T05:29:55.340Z,100.00
2023-03-22T05:30:59.210Z,100.00
2023-03-22T05:32:05.231Z,100.00
2023-03-22T05:33:09.945Z,100.00
2023-03-22T05:34:13.839Z,100.00
2023-03-22T05:35:17.857Z,100.00
2023-03-22T05:36:23.255Z,100.00
2023-03-22T05:37:26.871Z,100.00
2023-03-22T05:38:34.082Z,100.00
2023-03-22T05:39:37.849Z,100.00
2023-03-22T05:40:45.472Z,100.00
2023-03-22T05:41:50.202Z,100.00
2023-03-22T05:42:54.861Z,100.00
2023-03-22T05:43:58.557Z,100.00
2023-03-22T05:45:03.515Z,100.00
2023-03-22T05:46:12.675Z,100.00
2023-03-22T05:47:16.296Z,100.00
2023-03-22T05:48:20.806Z,100.00
2023-03-22T05:49:26.854Z,100.00
2023-03-22T05:50:30.946Z,100.00
2023-03-22T05:51:41.594Z,100.00
2023-03-22T05:52:46.490Z,100.00
2023-03-22T05:53:51.783Z,100.00
2023-03-22T05:54:56.242Z,100.00
2023-03-22T05:56:00.874Z,100.00
2023-03-22T05:57:04.690Z,100.00
2023-03-22T05:58:09.929Z,100.00
2023-03-22T05:59:14.058Z,100.00
2023-03-22T06:00:19.946Z,100.00
2023-03-22T06:01:25.712Z,100.00
2023-03-22T06:02:32.254Z,100.00
2023-03-22T06:03:36.448Z,100.00
2023-03-22T06:04:41.859Z,100.00
2023-03-22T06:05:50.874Z,100.00
2023-03-22T06:06:54.930Z,100.00
2023-03-22T06:08:02.240Z,100.00
2023-03-22T06:09:17.619Z,100.00
2023-03-22T06:10:24.238Z,100.00
2023-03-22T06:11:28.698Z,100.00
2023-03-22T06:12:33.142Z,100.00
2023-03-22T06:13:37.606Z,100.00
2023-03-22T06:14:41.271Z,100.00
2023-03-22T06:15:47.772Z,100.00
2023-03-22T06:16:52.156Z,100.00
2023-03-22T06:17:56.105Z,100.00
2023-03-22T06:19:00.587Z,100.00
2023-03-22T06:20:11.142Z,100.00
2023-03-22T06:21:15.857Z,100.00
2023-03-22T06:22:20.964Z,100.00
2023-03-22T06:23:24.887Z,100.00
2023-03-22T06:24:28.672Z,100.00
2023-03-22T06:25:33.573Z,100.00
2023-03-22T06:26:38.267Z,100.00
2023-03-22T06:27:42.406Z,100.00
2023-03-22T06:28:46.304Z,100.00
2023-03-22T06:29:51.130Z,100.00
2023-03-22T06:30:55.301Z,100.00
2023-03-22T06:32:02.876Z,100.00
2023-03-22T06:33:06.761Z,100.00
2023-03-22T06:34:10.642Z,100.00
2023-03-22T06:35:15.673Z,100.00
2023-03-22T06:36:19.702Z,100.00
2023-03-22T06:37:24.583Z,100.00
2023-03-22T06:38:35.820Z,100.00
2023-03-22T06:39:39.542Z,100.00
2023-03-22T06:40:43.602Z,100.00
2023-03-22T06:41:47.505Z,100.00
2023-03-22T06:42:51.405Z,100.00
2023-03-22T06:43:55.096Z,100.00
2023-03-22T06:44:59.071Z,100.00
2023-03-22T06:46:03.333Z,100.00
2023-03-22T06:47:08.439Z,100.00
2023-03-22T06:48:12.281Z,100.00
2023-03-22T06:49:19.355Z,100.00
2023-03-22T06:50:23.791Z,100.00
2023-03-22T06:51:27.779Z,100.00
2023-03-22T06:52:32.299Z,100.00
2023-03-22T06:53:39.618Z,100.00
2023-03-22T06:54:43.430Z,100.00
2023-03-22T06:55:47.477Z,100.00
2023-03-22T06:56:51.305Z,100.00
2023-03-22T06:57:55.348Z,100.00
2023-03-22T06:58:59.348Z,100.00
2023-03-22T07:00:05.317Z,100.00
2023-03-22T07:01:09.092Z,100.00
2023-03-22T07:02:13.952Z,100.00
2023-03-22T07:03:17.753Z,100.00
2023-03-22T07:04:21.411Z,100.00
2023-03-22T07:05:25.393Z,100.00
2023-03-22T07:06:29.316Z,100.00
2023-03-22T07:07:33.559Z,100.00
2023-03-22T07:08:37.692Z,100.00
2023-03-22T07:09:41.793Z,100.00
2023-03-22T07:10:51.361Z,100.00
2023-03-22T07:11:55.482Z,100.00
2023-03-22T07:12:59.083Z,100.00
2023-03-22T07:14:02.683Z,100.00
2023-03-22T07:15:07.489Z,100.00
2023-03-22T07:16:11.885Z,100.00
2023-03-22T07:17:15.828Z,100.00
2023-03-22T07:18:19.832Z,100.00
2023-03-22T07:19:24.408Z,100.00
2023-03-22T07:20:29.011Z,100.00
2023-03-22T07:21:36.088Z,100.00
2023-03-22T07:22:42.572Z,100.00
2023-03-22T07:23:46.386Z,100.00
2023-03-22T07:24:57.211Z,100.00
2023-03-22T07:26:03.151Z,100.00
2023-03-22T07:27:07.818Z,100.00
2023-03-22T07:28:11.599Z,100.00
2023-03-22T07:29:15.283Z,100.00
2023-03-22T07:30:22.693Z,100.00
2023-03-22T07:31:26.445Z,100.00
2023-03-22T07:32:32.623Z,100.00
2023-03-22T07:33:36.421Z,100.00
2023-03-22T07:34:40.005Z,100.00
2023-03-22T07:35:44.230Z,100.00
2023-03-22T07:36:48.086Z,100.00
2023-03-22T07:37:55.367Z,100.00
2023-03-22T07:39:00.348Z,99.94
2023-03-22T07:40:05.358Z,99.00
2023-03-22T07:41:08.931Z,98.67
2023-03-22T07:42:17.311Z,98.87
2023-03-22T07:43:22.250Z,99.35
2023-03-22T07:44:26.734Z,98.57
2023-03-22T07:45:30.874Z,98.45
2023-03-22T07:46:34.871Z,98.36
2023-03-22T07:47:41.419Z,98.41
2023-03-22T07:48:45.298Z,96.01
2023-03-22T07:49:49.291Z,97.03
2023-03-22T07:50:56.804Z,94.67
2023-03-22T07:52:00.600Z,92.47
2023-03-22T07:53:11.807Z,90.81
2023-03-22T07:54:32.216Z,89.27
2023-03-22T07:55:38.331Z,86.16
2023-03-22T07:56:42.995Z,85.15
2023-03-22T07:57:48.738Z,82.20
2023-03-22T07:58:52.338Z,79.64
2023-03-22T07:59:57.142Z,79.50
2023-03-22T08:01:10.100Z,74.63
2023-03-22T08:02:14.596Z,77.93
2023-03-22T08:03:18.445Z,77.41
2023-03-22T08:04:22.875Z,77.15
2023-03-22T08:05:29.353Z,70.32
2023-03-22T08:06:33.139Z,74.55
2023-03-22T08:07:37.836Z,71.54
2023-03-22T08:08:44.029Z,69.98
2023-03-22T08:09:49.645Z,66.59
2023-03-22T08:10:53.204Z,66.79
2023-03-22T08:11:59.007Z,65.32
2023-03-22T08:13:03.068Z,61.33
2023-03-22T08:14:06.626Z,64.38
2023-03-22T08:15:11.278Z,64.83
2023-03-22T08:16:15.290Z,63.75
2023-03-22T08:17:28.093Z,62.59
2023-03-22T08:18:32.333Z,61.80
2023-03-22T08:19:36.204Z,60.05
2023-03-22T08:20:41.551Z,60.91
2023-03-22T08:21:45.592Z,60.24
2023-03-22T08:22:49.414Z,60.12
2023-03-22T08:23:53.983Z,60.14
2023-03-22T08:24:57.986Z,60.19
2023-03-22T08:26:02.009Z,60.02
2023-03-22T08:27:06.019Z,59.28
2023-03-22T08:28:10.809Z,60.93
2023-03-22T08:29:15.927Z,61.28
2023-03-22T08:30:22.065Z,60.90
2023-03-22T08:31:26.626Z,62.01
2023-03-22T08:32:30.723Z,60.59
2023-03-22T08:33:34.582Z,61.74
2023-03-22T08:34:43.026Z,62.08
2023-03-22T08:35:49.050Z,61.82
2023-03-22T08:36:52.848Z,62.21
2023-03-22T08:37:57.736Z,62.59
2023-03-22T08:39:01.662Z,62.32
2023-03-22T08:40:09.224Z,62.04
2023-03-22T08:41:13.931Z,62.27
2023-03-22T08:42:23.775Z,61.88
2023-03-22T08:43:27.434Z,63.32
2023-03-22T08:44:31.491Z,63.59
2023-03-22T08:45:36.626Z,63.47
2023-03-22T08:46:40.916Z,64.24
2023-03-22T08:47:45.592Z,63.89
2023-03-22T08:48:52.313Z,64.29
2023-03-22T08:49:56.285Z,64.23
2023-03-22T08:51:03.138Z,64.84
2023-03-22T08:52:08.822Z,65.39
2023-03-22T08:53:14.997Z,65.47
2023-03-22T08:54:19.350Z,65.70
2023-03-22T08:55:23.387Z,65.90
2023-03-22T08:56:27.993Z,66.06
2023-03-22T08:57:31.855Z,66.81
2023-03-22T08:58:36.373Z,67.24
2023-03-22T08:59:40.011Z,67.08
2023-03-22T09:00:49.129Z,65.92
2023-03-22T09:01:53.848Z,66.24
2023-03-22T09:02:57.583Z,65.49
2023-03-22T09:04:01.632Z,65.45
2023-03-22T09:05:05.934Z,65.16
2023-03-22T09:06:11.215Z,64.58
2023-03-22T09:07:15.737Z,63.66
2023-03-22T09:08:20.782Z,63.99
2023-03-22T09:09:24.577Z,63.75
2023-03-22T09:10:30.358Z,63.74
2023-03-22T09:11:34.201Z,63.67
2023-03-22T09:12:38.605Z,63.43
2023-03-22T09:13:42.297Z,62.77
2023-03-22T09:14:46.933Z,63.36
2023-03-22T09:15:52.502Z,63.03
2023-03-22T09:16:56.176Z,63.29
2023-03-22T09:18:00.131Z,63.14
2023-03-22T09:19:03.964Z,62.89
2023-03-22T09:20:12.787Z,62.90
2023-03-22T09:21:17.261Z,62.07
2023-03-22T09:22:21.162Z,63.19
2023-03-22T09:23:25.092Z,63.02
2023-03-22T09:24:28.865Z,63.59
2023-03-22T09:25:32.969Z,62.44
2023-03-22T09:26:37.185Z,63.49
2023-03-22T09:27:41.442Z,63.66
2023-03-22T09:28:47.124Z,64.08
2023-03-22T09:29:52.759Z,64.88
2023-03-22T09:31:09.048Z,65.03
2023-03-22T09:32:13.032Z,65.25
2023-03-22T09:33:16.823Z,65.54
2023-03-22T09:34:21.231Z,65.77
2023-03-22T09:35:25.398Z,65.83
2023-03-22T09:36:29.258Z,65.40
2023-03-22T09:37:33.186Z,65.82
2023-03-22T09:38:36.917Z,66.25
2023-03-22T09:39:41.866Z,66.21
2023-03-22T09:41:01.743Z,66.58
2023-03-22T09:42:29.914Z,66.79
2023-03-22T09:43:53.733Z,67.12
2023-03-22T09:44:59.113Z,67.27
2023-03-22T09:46:08.833Z,67.47
2023-03-22T09:47:52.475Z,67.31
2023-03-22T09:49:01.980Z,67.59
2023-03-22T09:50:16.413Z,68.00
2023-03-22T09:51:43.779Z,68.12
2023-03-22T09:52:48.687Z,68.29
2023-03-22T09:53:53.577Z,68.95
2023-03-22T09:54:59.125Z,69.19
2023-03-22T09:56:29.272Z,68.91
2023-03-22T09:57:37.523Z,68.66
2023-03-22T09:58:56.495Z,68.84
2023-03-22T10:00:33.494Z,68.50
2023-03-22T10:02:02.198Z,68.62
2023-03-22T10:03:42.431Z,68.11
2023-03-22T10:05:16.776Z,68.05
2023-03-22T10:06:28.241Z,67.38
2023-03-22T10:08:03.292Z,67.08
2023-03-22T10:09:19.539Z,66.73
2023-03-22T10:10:25.458Z,66.44
2023-03-22T10:11:55.880Z,66.14
2023-03-22T10:13:16.911Z,65.70
2023-03-22T10:14:42.555Z,64.96
2023-03-22T10:15:52.370Z,66.47
2023-03-22T10:17:04.133Z,66.73
2023-03-22T10:18:17.818Z,66.78
2023-03-22T10:19:34.193Z,65.93
2023-03-22T10:20:57.444Z,65.84
2023-03-22T10:22:10.022Z,66.04
2023-03-22T10:23:27.238Z,66.34
2023-03-22T10:24:36.490Z,65.95
2023-03-22T10:25:43.179Z,65.97
2023-03-22T10:26:49.783Z,65.25
2023-03-22T10:27:57.990Z,64.53
2023-03-22T10:29:18.767Z,65.19
2023-03-22T10:30:30.534Z,64.65
2023-03-22T10:31:35.068Z,64.37
2023-03-22T10:33:07.994Z,64.07
2023-03-22T10:34:33.845Z,64.19
2023-03-22T10:35:41.728Z,63.77
2023-03-22T10:36:47.010Z,64.12
2023-03-22T10:37:54.822Z,64.26
2023-03-22T10:39:27.571Z,63.46
2023-03-22T10:40:35.989Z,63.53
2023-03-22T10:41:40.859Z,63.45
2023-03-22T10:42:53.418Z,63.27
2023-03-22T10:44:03.363Z,63.12
2023-03-22T10:45:16.039Z,63.10
2023-03-22T10:46:27.113Z,63.51
2023-03-22T10:47:51.993Z,63.71
2023-03-22T10:49:00.955Z,63.60
2023-03-22T10:50:28.858Z,63.27
2023-03-22T10:51:41.313Z,62.67
2023-03-22T10:53:18.787Z,63.00
2023-03-22T10:54:26.204Z,62.41
2023-03-22T10:55:30.856Z,63.13
2023-03-22T10:56:34.414Z,62.93
2023-03-22T10:57:40.083Z,63.42
2023-03-22T10:58:43.803Z,63.08
2023-03-22T10:59:55.897Z,62.94
2023-03-22T11:01:12.943Z,62.40
2023-03-22T11:02:23.962Z,62.24
2023-03-22T11:03:32.340Z,62.58
2023-03-22T11:04:38.296Z,61.63
2023-03-22T11:05:41.996Z,61.96
2023-03-22T11:06:56.113Z,61.74
2023-03-22T11:08:03.561Z,60.33
2023-03-22T11:09:17.827Z,60.68
2023-03-22T11:10:33.709Z,60.91
2023-03-22T11:11:53.723Z,60.52
2023-03-22T11:13:17.293Z,60.86
2023-03-22T11:14:31.140Z,61.24
2023-03-22T11:15:53.428Z,59.88
2023-03-22T11:17:08.360Z,58.41
2023-03-22T11:18:16.620Z,56.77
2023-03-22T11:19:28.905Z,58.31
2023-03-22T11:20:35.249Z,57.26
2023-03-22T11:21:42.074Z,57.76
2023-03-22T11:22:51.286Z,58.00
2023-03-22T11:24:04.688Z,57.71
2023-03-22T11:25:31.271Z,56.84
2023-03-22T11:26:40.696Z,57.40
2023-03-22T11:28:17.136Z,57.13
2023-03-22T11:29:21.747Z,56.98
2023-03-22T11:30:29.800Z,56.69
2023-03-22T11:31:56.105Z,56.12
2023-03-22T11:33:21.201Z,55.03
2023-03-22T11:34:31.893Z,55.94
2023-03-22T11:35:40.143Z,55.88
2023-03-22T11:36:54.914Z,55.66
2023-03-22T11:38:00.106Z,55.14
2023-03-22T11:39:08.416Z,55.06
2023-03-22T11:40:21.720Z,54.87
2023-03-22T11:41:31.216Z,54.90
2023-03-22T11:42:36.067Z,55.79
2023-03-22T11:43:48.420Z,55.78
2023-03-22T11:44:55.546Z,55.29
2023-03-22T11:46:01.653Z,55.53
2023-03-22T11:47:12.288Z,55.95
2023-03-22T11:48:23.721Z,55.50
2023-03-22T11:49:51.116Z,54.92
2023-03-22T11:51:10.457Z,55.52
2023-03-22T11:52:27.164Z,55.30
2023-03-22T11:53:37.429Z,55.03
2023-03-22T11:54:45.974Z,54.78
2023-03-22T11:55:53.698Z,54.84
2023-03-22T11:57:03.939Z,54.24
2023-03-22T11:58:07.952Z,54.41
2023-03-22T11:59:23.917Z,54.09
2023-03-22T12:00:31.298Z,53.59
2023-03-22T12:01:51.998Z,53.82
2023-03-22T12:03:20.446Z,53.59
2023-03-22T12:04:31.801Z,53.24
2023-03-22T12:05:42.452Z,53.73
2023-03-22T12:06:48.037Z,53.26
2023-03-22T12:08:06.341Z,52.98
2023-03-22T12:09:57.556Z,52.91
2023-03-22T12:11:08.842Z,52.93
2023-03-22T12:12:27.448Z,53.10
2023-03-22T12:13:46.959Z,53.21
2023-03-22T12:15:05.225Z,53.62
2023-03-22T12:16:16.002Z,53.66
2023-03-22T12:17:48.050Z,53.35
2023-03-22T12:19:07.625Z,53.05
2023-03-22T12:20:40.968Z,53.07
2023-03-22T12:21:47.609Z,53.34
2023-03-22T12:22:55.344Z,53.01
2023-03-22T12:24:03.840Z,53.02
2023-03-22T12:25:18.002Z,52.85
2023-03-22T12:26:28.502Z,52.70
2023-03-22T12:27:38.859Z,53.25
2023-03-22T12:29:03.546Z,52.79
2023-03-22T12:30:19.210Z,52.91
2023-03-22T12:31:39.593Z,53.07
2023-03-22T12:33:29.106Z,52.35
2023-03-22T12:34:43.549Z,52.65
2023-03-22T12:35:51.391Z,53.04
2023-03-22T12:36:57.584Z,53.05
2023-03-22T12:38:31.159Z,52.59
2023-03-22T12:39:43.654Z,52.89
2023-03-22T12:40:50.207Z,52.88
2023-03-22T12:42:01.595Z,52.48
2023-03-22T12:43:45.826Z,52.73
2023-03-22T12:45:05.201Z,52.58
2023-03-22T12:46:19.551Z,52.53
2023-03-22T12:47:52.748Z,52.81
2023-03-22T12:49:13.311Z,52.76
2023-03-22T12:50:42.260Z,52.21
2023-03-22T12:51:51.208Z,52.54
2023-03-22T12:52:57.012Z,52.40
2023-03-22T12:54:03.209Z,52.03
2023-03-22T12:55:18.986Z,52.20
2023-03-22T12:56:43.092Z,52.02
2023-03-22T12:57:51.414Z,52.23
2023-03-22T12:59:04.626Z,52.17
2023-03-22T13:00:21.940Z,51.86
2023-03-22T13:01:45.808Z,52.22
2023-03-22T13:03:29.114Z,51.88
2023-03-22T13:04:55.999Z,51.56
2023-03-22T13:06:28.143Z,51.00
2023-03-22T13:07:52.050Z,51.11
2023-03-22T13:09:30.081Z,50.75
2023-03-22T13:10:36.045Z,50.79
2023-03-22T13:11:41.307Z,50.63
2023-03-22T13:13:24.252Z,50.32
2023-03-22T13:14:53.116Z,50.12
2023-03-22T13:16:13.700Z,50.43
2023-03-22T13:17:23.666Z,50.28
2023-03-22T13:18:40.830Z,50.18
2023-03-22T13:20:02.292Z,49.93
2023-03-22T13:21:30.055Z,49.46
2023-03-22T13:22:41.771Z,49.33
2023-03-22T13:24:10.602Z,49.52
2023-03-22T13:25:19.161Z,49.32
2023-03-22T13:27:00.003Z,49.13
2023-03-22T13:28:26.936Z,49.10
2023-03-22T13:29:36.552Z,49.52
2023-03-22T13:30:59.255Z,48.77
2023-03-22T13:32:29.013Z,48.92
2023-03-22T13:33:37.938Z,48.76
2023-03-22T13:34:50.576Z,48.71
2023-03-22T13:36:25.251Z,48.51
2023-03-22T13:37:46.183Z,48.61
2023-03-22T13:39:05.386Z,48.75
2023-03-22T13:40:49.315Z,48.22
2023-03-22T13:42:33.317Z,48.15
2023-03-22T13:43:51.666Z,48.42
2023-03-22T13:44:59.444Z,48.07
2023-03-22T13:46:17.877Z,48.09
2023-03-22T13:47:47.217Z,48.08
2023-03-22T13:48:58.474Z,47.87
2023-03-22T13:50:27.682Z,47.80
2023-03-22T13:51:34.509Z,47.80
2023-03-22T13:52:56.777Z,48.12
2023-03-22T13:54:18.602Z,47.79
2023-03-22T13:55:46.894Z,47.72
2023-03-22T13:57:02.140Z,47.34
2023-03-22T13:58:41.576Z,47.47
2023-03-22T14:00:20.700Z,47.47
2023-03-22T14:01:47.843Z,47.59
2023-03-22T14:02:53.418Z,47.65
2023-03-22T14:04:09.604Z,47.62
2023-03-22T14:05:23.204Z,47.73
2023-03-22T14:06:34.552Z,47.53
2023-03-22T14:07:58.204Z,47.50
2023-03-22T14:09:28.597Z,48.22
2023-03-22T14:10:53.402Z,47.38
2023-03-22T14:12:48.468Z,47.67
2023-03-22T14:14:04.508Z,47.95
2023-03-22T14:15:43.363Z,47.67
2023-03-22T14:16:59.342Z,47.81
2023-03-22T14:18:26.816Z,47.63
2023-03-22T14:19:34.771Z,47.71
2023-03-22T14:20:41.030Z,47.74
